sensor_id;sensor_type;location;lat;lon;timestamp;pressure;altitude;pressure_sealevel;temperature;humidity
30714;BME280;17465;47.934;33.430;2023-04-09T00:01:22;57346.32;;;-140.43;100.00
30714;BME280;17465;47.934;33.430;2023-04-09T00:03:53;57332.55;;;-140.43;100.00
30714;BME280;17465;47.934;33.430;2023-04-09T00:06:24;57342.08;;;-140.43;100.00
30714;BME280;17465;47.934;33.430;2023-04-09T00:09:00;57338.90;;;-140.43;100.00
30714;BME280;17465;47.934;33.430;2023-04-09T00:11:30;57338.90;;;-140.43;100.00
30714;BME280;17465;47.934;33.430;2023-04-09T00:14:01;57338.90;;;-140.43;100.00
30714;BME280;17465;47.934;33.430;2023-04-09T00:16:31;57344.20;;;-140.43;100.00
30714;BME280;17465;47.934;33.430;2023-04-09T00:19:09;57344.20;;;-140.43;100.00
30714;BME280;17465;47.934;33.430;2023-04-09T00:21:39;57350.55;;;-140.43;100.00
30714;BME280;17465;47.934;33.430;2023-04-09T00:24:11;57305.01;;;-140.43;100.00
30714;BME280;17465;47.934;33.430;2023-04-09T00:26:53;57330.43;;;-140.43;100.00
30714;BME280;17465;47.934;33.430;2023-04-09T00:29:23;57330.43;;;-140.43;100.00
30714;BME280;17465;47.934;33.430;2023-04-09T00:31:54;57350.55;;;-140.43;100.00
30714;BME280;17465;47.934;33.430;2023-04-09T00:34:28;57325.14;;;-140.43;100.00
30714;BME280;17465;47.934;33.430;2023-04-09T00:37:01;57318.78;;;-140.43;100.00
30714;BME280;17465;47.934;33.430;2023-04-09T00:39:32;57327.25;;;-140.43;100.00
30714;BME280;17465;47.934;33.430;2023-04-09T00:42:02;57337.84;;;-140.43;100.00
30714;BME280;17465;47.934;33.430;2023-04-09T00:44:34;57352.67;;;-140.43;100.00
30714;BME280;17465;47.934;33.430;2023-04-09T00:47:08;57342.08;;;-140.43;100.00
30714;BME280;17465;47.934;33.430;2023-04-09T00:49:56;57320.90;;;-140.43;100.00
30714;BME280;17465;47.934;33.430;2023-04-09T00:52:27;57324.07;;;-140.43;100.00
30714;BME280;17465;47.934;33.430;2023-04-09T00:55:04;57324.07;;;-140.43;100.00
30714;BME280;17465;47.934;33.430;2023-04-09T00:57:36;57344.20;;;-140.43;100.00
30714;BME280;17465;47.934;33.430;2023-04-09T01:00:13;57320.90;;;-140.43;100.00
30714;BME280;17465;47.934;33.430;2023-04-09T01:02:40;57320.90;;;-140.43;100.00
30714;BME280;17465;47.934;33.430;2023-04-09T01:05:15;57318.78;;;-140.43;100.00
30714;BME280;17465;47.934;33.430;2023-04-09T01:08:44;57317.72;;;-140.43;100.00
30714;BME280;17465;47.934;33.430;2023-04-09T01:10:41;57348.43;;;-140.43;100.00
30714;BME280;17465;47.934;33.430;2023-04-09T01:13:26;57348.43;;;-140.43;100.00
30714;BME280;17465;47.934;33.430;2023-04-09T01:16:09;57348.43;;;-140.43;100.00
30714;BME280;17465;47.934;33.430;2023-04-09T01:19:05;57326.20;;;-140.43;100.00
30714;BME280;17465;47.934;33.430;2023-04-09T01:21:32;57331.49;;;-140.43;100.00
30714;BME280;17465;47.934;33.430;2023-04-09T01:24:21;57331.49;;;-140.43;100.00
30714;BME280;17465;47.934;33.430;2023-04-09T01:27:05;57351.61;;;-140.43;100.00
30714;BME280;17465;47.934;33.430;2023-04-09T01:29:49;57326.20;;;-140.43;100.00
30714;BME280;17465;47.934;33.430;2023-04-09T01:32:18;57283.83;;;-140.43;100.00
30714;BME280;17465;47.934;33.430;2023-04-09T01:34:53;57329.37;;;-140.43;100.00
30714;BME280;17465;47.934;33.430;2023-04-09T01:37:25;57307.13;;;-140.43;100.00
30714;BME280;17465;47.934;33.430;2023-04-09T01:39:57;57319.84;;;-140.43;100.00
30714;BME280;17465;47.934;33.430;2023-04-09T01:42:28;57336.79;;;-140.43;100.00
30714;BME280;17465;47.934;33.430;2023-04-09T01:45:01;57336.79;;;-140.43;100.00
30714;BME280;17465;47.934;33.430;2023-04-09T01:47:33;57316.66;;;-140.43;100.00
30714;BME280;17465;47.934;33.430;2023-04-09T01:50:04;57310.31;;;-140.43;100.00
30714;BME280;17465;47.934;33.430;2023-04-09T01:52:36;57328.31;;;-140.43;100.00
30714;BME280;17465;47.934;33.430;2023-04-09T01:55:07;57324.07;;;-140.43;100.00
30714;BME280;17465;47.934;33.430;2023-04-09T01:57:37;57343.14;;;-140.43;100.00
30714;BME280;17465;47.934;33.430;2023-04-09T02:00:09;57329.37;;;-140.43;100.00
30714;BME280;17465;47.934;33.430;2023-04-09T02:02:59;57333.61;;;-140.43;100.00
30714;BME280;17465;47.934;33.430;2023-04-09T02:05:28;57333.61;;;-140.43;100.00
30714;BME280;17465;47.934;33.430;2023-04-09T02:08:01;57321.96;;;-140.43;100.00
30714;BME280;17465;47.934;33.430;2023-04-09T02:10:36;57332.55;;;-140.43;100.00
30714;BME280;17465;47.934;33.430;2023-04-09T02:13:08;57315.61;;;-140.43;100.00
30714;BME280;17465;47.934;33.430;2023-04-09T02:15:41;57326.20;;;-140.43;100.00
30714;BME280;17465;47.934;33.430;2023-04-09T02:18:23;57330.43;;;-140.43;100.00
30714;BME280;17465;47.934;33.430;2023-04-09T02:20:55;57336.79;;;-140.43;100.00
30714;BME280;17465;47.934;33.430;2023-04-09T02:23:26;57343.14;;;-140.43;100.00
30714;BME280;17465;47.934;33.430;2023-04-09T02:25:57;57343.14;;;-140.43;100.00
30714;BME280;17465;47.934;33.430;2023-04-09T02:28:28;57317.72;;;-140.43;100.00
30714;BME280;17465;47.934;33.430;2023-04-09T02:31:00;57310.31;;;-140.43;100.00
30714;BME280;17465;47.934;33.430;2023-04-09T02:33:30;57344.20;;;-140.43;100.00
30714;BME280;17465;47.934;33.430;2023-04-09T02:36:01;57345.26;;;-140.43;100.00
30714;BME280;17465;47.934;33.430;2023-04-09T02:38:32;57345.26;;;-140.43;100.00
30714;BME280;17465;47.934;33.430;2023-04-09T02:41:04;57343.14;;;-140.43;100.00
30714;BME280;17465;47.934;33.430;2023-04-09T02:43:35;57338.90;;;-140.43;100.00
30714;BME280;17465;47.934;33.430;2023-04-09T02:46:06;57338.90;;;-140.43;100.00
30714;BME280;17465;47.934;33.430;2023-04-09T02:48:37;57329.37;;;-140.43;100.00
30714;BME280;17465;47.934;33.430;2023-04-09T02:51:08;57311.37;;;-140.43;100.00
30714;BME280;17465;47.934;33.430;2023-04-09T02:53:40;57292.30;;;-140.43;100.00
30714;BME280;17465;47.934;33.430;2023-04-09T02:56:11;57328.31;;;-140.43;100.00
30714;BME280;17465;47.934;33.430;2023-04-09T02:58:42;57316.66;;;-140.43;100.00
30714;BME280;17465;47.934;33.430;2023-04-09T03:01:13;57325.14;;;-140.43;100.00
30714;BME280;17465;47.934;33.430;2023-04-09T03:03:48;57316.66;;;-140.43;100.00
30714;BME280;17465;47.934;33.430;2023-04-09T03:06:17;57341.02;;;-140.43;100.00
30714;BME280;17465;47.934;33.430;2023-04-09T03:08:48;57300.78;;;-140.43;100.00
30714;BME280;17465;47.934;33.430;2023-04-09T03:11:19;57333.61;;;-140.43;100.00
30714;BME280;17465;47.934;33.430;2023-04-09T03:13:50;57334.67;;;-140.43;100.00
30714;BME280;17465;47.934;33.430;2023-04-09T03:16:25;57308.19;;;-140.43;100.00
30714;BME280;17465;47.934;33.430;2023-04-09T03:18:56;57308.19;;;-140.43;100.00
30714;BME280;17465;47.934;33.430;2023-04-09T03:21:26;57353.73;;;-140.43;100.00
30714;BME280;17465;47.934;33.430;2023-04-09T03:23:57;57315.61;;;-140.43;100.00
30714;BME280;17465;47.934;33.430;2023-04-09T03:26:27;57308.19;;;-140.43;100.00
30714;BME280;17465;47.934;33.430;2023-04-09T03:28:59;57313.48;;;-140.43;100.00
30714;BME280;17465;47.934;33.430;2023-04-09T03:31:29;57335.73;;;-140.43;100.00
30714;BME280;17465;47.934;33.430;2023-04-09T03:34:00;57320.90;;;-140.43;100.00
30714;BME280;17465;47.934;33.430;2023-04-09T03:36:31;57331.49;;;-140.43;100.00
30714;BME280;17465;47.934;33.430;2023-04-09T03:39:02;57334.67;;;-140.43;100.00
30714;BME280;17465;47.934;33.430;2023-04-09T03:41:35;57332.55;;;-140.43;100.00
30714;BME280;17465;47.934;33.430;2023-04-09T03:44:09;57332.55;;;-140.43;100.00
30714;BME280;17465;47.934;33.430;2023-04-09T03:46:40;57337.84;;;-140.43;100.00
30714;BME280;17465;47.934;33.430;2023-04-09T03:49:11;57331.49;;;-140.43;100.00
30714;BME280;17465;47.934;33.430;2023-04-09T03:51:41;57312.43;;;-140.43;100.00
30714;BME280;17465;47.934;33.430;2023-04-09T03:54:15;57331.49;;;-140.43;100.00
30714;BME280;17465;47.934;33.430;2023-04-09T03:56:48;57334.67;;;-140.43;100.00
30714;BME280;17465;47.934;33.430;2023-04-09T03:59:23;57310.31;;;-140.43;100.00
30714;BME280;17465;47.934;33.430;2023-04-09T04:01:56;57341.02;;;-140.43;100.00
30714;BME280;17465;47.934;33.430;2023-04-09T04:04:27;57341.02;;;-140.43;100.00
30714;BME280;17465;47.934;33.430;2023-04-09T04:06:59;57325.14;;;-140.43;100.00
30714;BME280;17465;47.934;33.430;2023-04-09T04:09:30;57309.25;;;-140.43;100.00
30714;BME280;17465;47.934;33.430;2023-04-09T04:12:15;57331.49;;;-140.43;100.00
30714;BME280;17465;47.934;33.430;2023-04-09T04:14:42;57315.61;;;-140.43;100.00
30714;BME280;17465;47.934;33.430;2023-04-09T04:17:13;57326.20;;;-140.43;100.00
30714;BME280;17465;47.934;33.430;2023-04-09T04:19:46;57337.84;;;-140.43;100.00
30714;BME280;17465;47.934;33.430;2023-04-09T04:22:17;57337.84;;;-140.43;100.00
30714;BME280;17465;47.934;33.430;2023-04-09T04:24:48;57330.43;;;-140.43;100.00
30714;BME280;17465;47.934;33.430;2023-04-09T04:27:18;57352.67;;;-140.43;100.00
30714;BME280;17465;47.934;33.430;2023-04-09T04:29:49;57337.84;;;-140.43;100.00
30714;BME280;17465;47.934;33.430;2023-04-09T04:32:20;57326.20;;;-140.43;100.00
30714;BME280;17465;47.934;33.430;2023-04-09T04:34:53;57321.96;;;-140.43;100.00
30714;BME280;17465;47.934;33.430;2023-04-09T04:37:42;57335.73;;;-140.43;100.00
30714;BME280;17465;47.934;33.430;2023-04-09T04:40:25;57316.66;;;-140.43;100.00
30714;BME280;17465;47.934;33.430;2023-04-09T04:42:55;57335.73;;;-140.43;100.00
30714;BME280;17465;47.934;33.430;2023-04-09T04:45:32;57342.08;;;-140.43;100.00
30714;BME280;17465;47.934;33.430;2023-04-09T04:48:20;57327.25;;;-140.43;100.00
30714;BME280;17465;47.934;33.430;2023-04-09T04:51:11;57344.20;;;-140.43;100.00
30714;BME280;17465;47.934;33.430;2023-04-09T04:53:52;57339.96;;;-140.43;100.00
30714;BME280;17465;47.934;33.430;2023-04-09T04:56:23;57328.31;;;-140.43;100.00
30714;BME280;17465;47.934;33.430;2023-04-09T04:58:57;57345.26;;;-140.43;100.00
30714;BME280;17465;47.934;33.430;2023-04-09T05:01:27;57336.79;;;-140.43;100.00
30714;BME280;17465;47.934;33.430;2023-04-09T05:03:59;57327.25;;;-140.43;100.00
30714;BME280;17465;47.934;33.430;2023-04-09T05:06:36;57325.14;;;-140.43;100.00
30714;BME280;17465;47.934;33.430;2023-04-09T05:09:07;57320.90;;;-140.43;100.00
30714;BME280;17465;47.934;33.430;2023-04-09T05:11:38;57325.14;;;-140.43;100.00
30714;BME280;17465;47.934;33.430;2023-04-09T05:14:09;57328.31;;;-140.43;100.00
30714;BME280;17465;47.934;33.430;2023-04-09T05:16:41;57346.32;;;-140.43;100.00
30714;BME280;17465;47.934;33.430;2023-04-09T05:19:16;57333.61;;;-140.43;100.00
30714;BME280;17465;47.934;33.430;2023-04-09T05:21:54;57333.61;;;-140.43;100.00
30714;BME280;17465;47.934;33.430;2023-04-09T05:24:25;57328.31;;;-140.43;100.00
30714;BME280;17465;47.934;33.430;2023-04-09T05:26:55;57354.79;;;-140.43;100.00
30714;BME280;17465;47.934;33.430;2023-04-09T05:29:26;57354.79;;;-140.43;100.00
30714;BME280;17465;47.934;33.430;2023-04-09T05:32:11;57339.96;;;-140.43;100.00
30714;BME280;17465;47.934;33.430;2023-04-09T05:34:42;57339.96;;;-140.43;100.00
30714;BME280;17465;47.934;33.430;2023-04-09T05:37:12;57328.31;;;-140.43;100.00
30714;BME280;17465;47.934;33.430;2023-04-09T05:39:45;57347.38;;;-140.43;100.00
30714;BME280;17465;47.934;33.430;2023-04-09T05:42:15;57362.20;;;-140.43;100.00
30714;BME280;17465;47.934;33.430;2023-04-09T05:44:48;57326.20;;;-140.43;100.00
30714;BME280;17465;47.934;33.430;2023-04-09T05:47:19;57316.66;;;-140.43;100.00
30714;BME280;17465;47.934;33.430;2023-04-09T05:49:50;57346.32;;;-140.43;100.00
30714;BME280;17465;47.934;33.430;2023-04-09T05:52:24;57346.32;;;-140.43;100.00
30714;BME280;17465;47.934;33.430;2023-04-09T05:54:54;57329.37;;;-140.43;100.00
30714;BME280;17465;47.934;33.430;2023-04-09T05:57:35;57341.02;;;-140.43;100.00
30714;BME280;17465;47.934;33.430;2023-04-09T06:00:08;57327.25;;;-140.43;100.00
30714;BME280;17465;47.934;33.430;2023-04-09T06:02:45;57330.43;;;-140.43;100.00
30714;BME280;17465;47.934;33.430;2023-04-09T06:05:20;57348.43;;;-140.43;100.00
30714;BME280;17465;47.934;33.430;2023-04-09T06:07:52;57343.14;;;-140.43;100.00
30714;BME280;17465;47.934;33.430;2023-04-09T06:10:26;57359.03;;;-140.43;100.00
30714;BME280;17465;47.934;33.430;2023-04-09T06:13:02;57339.96;;;-140.43;100.00
30714;BME280;17465;47.934;33.430;2023-04-09T06:15:54;57325.14;;;-140.43;100.00
30714;BME280;17465;47.934;33.430;2023-04-09T06:18:17;57357.96;;;-140.43;100.00
30714;BME280;17465;47.934;33.430;2023-04-09T06:20:49;57332.55;;;-140.43;100.00
30714;BME280;17465;47.934;33.430;2023-04-09T06:23:21;57343.14;;;-140.43;100.00
30714;BME280;17465;47.934;33.430;2023-04-09T06:26:10;57334.67;;;-140.43;100.00
30714;BME280;17465;47.934;33.430;2023-04-09T06:28:49;57352.67;;;-140.43;99.13
30714;BME280;17465;47.934;33.430;2023-04-09T06:31:29;57349.49;;;-140.43;98.36
30714;BME280;17465;47.934;33.430;2023-04-09T06:34:00;57339.96;;;-140.43;97.08
30714;BME280;17465;47.934;33.430;2023-04-09T06:36:34;57359.03;;;-140.43;96.49
30714;BME280;17465;47.934;33.430;2023-04-09T06:39:09;57367.50;;;-140.43;95.53
30714;BME280;17465;47.934;33.430;2023-04-09T06:41:41;57396.09;;;-140.43;97.03
30714;BME280;17465;47.934;33.430;2023-04-09T06:44:15;57338.90;;;-140.43;97.03
30714;BME280;17465;47.934;33.430;2023-04-09T06:46:50;57371.73;;;-140.43;96.43
30714;BME280;17465;47.934;33.430;2023-04-09T06:49:27;57345.26;;;-140.43;97.52
30714;BME280;17465;47.934;33.430;2023-04-09T06:52:01;57356.91;;;-140.43;95.95
30714;BME280;17465;47.934;33.430;2023-04-09T06:54:33;57361.14;;;-140.43;94.72
30714;BME280;17465;47.934;33.430;2023-04-09T06:57:10;57361.14;;;-140.43;94.72
30714;BME280;17465;47.934;33.430;2023-04-09T06:59:44;57338.90;;;-140.43;93.65
30714;BME280;17465;47.934;33.430;2023-04-09T07:02:42;57363.26;;;-140.43;95.20
30714;BME280;17465;47.934;33.430;2023-04-09T07:05:06;57350.55;;;-140.43;94.17
30714;BME280;17465;47.934;33.430;2023-04-09T07:07:42;57350.55;;;-140.43;94.17
30714;BME280;17465;47.934;33.430;2023-04-09T07:10:17;57345.26;;;-140.43;91.98
30714;BME280;17465;47.934;33.430;2023-04-09T07:12:49;57354.79;;;-140.43;92.11
30714;BME280;17465;47.934;33.430;2023-04-09T07:15:20;57346.32;;;-140.43;88.79
30714;BME280;17465;47.934;33.430;2023-04-09T07:17:58;57346.32;;;-140.43;88.79
30714;BME280;17465;47.934;33.430;2023-04-09T07:20:33;57361.14;;;-140.43;90.65
30714;BME280;17465;47.934;33.430;2023-04-09T07:23:06;57349.49;;;-140.43;88.04
30714;BME280;17465;47.934;33.430;2023-04-09T07:25:37;57362.20;;;-140.43;88.53
30714;BME280;17465;47.934;33.430;2023-04-09T07:28:11;57364.32;;;-140.43;88.90
30714;BME280;17465;47.934;33.430;2023-04-09T07:30:49;57375.97;;;-140.43;87.34
30714;BME280;17465;47.934;33.430;2023-04-09T07:33:25;57356.91;;;-140.43;87.29
30714;BME280;17465;47.934;33.430;2023-04-09T07:35:59;57357.96;;;-140.43;89.32
30714;BME280;17465;47.934;33.430;2023-04-09T07:38:32;57396.09;;;-140.43;90.61
30714;BME280;17465;47.934;33.430;2023-04-09T07:41:16;57341.02;;;-140.43;89.09
30714;BME280;17465;47.934;33.430;2023-04-09T07:43:47;57334.67;;;-140.43;88.12
30714;BME280;17465;47.934;33.430;2023-04-09T07:46:19;57365.38;;;-140.43;88.28
30714;BME280;17465;47.934;33.430;2023-04-09T07:48:52;57345.26;;;-140.43;87.47
30714;BME280;17465;47.934;33.430;2023-04-09T07:51:28;57373.85;;;-140.43;87.89
30714;BME280;17465;47.934;33.430;2023-04-09T07:54:01;57387.62;;;-140.43;85.82
30714;BME280;17465;47.934;33.430;2023-04-09T07:56:35;57378.09;;;-140.43;83.91
30714;BME280;17465;47.934;33.430;2023-04-09T07:59:09;57378.09;;;-140.43;82.61
30714;BME280;17465;47.934;33.430;2023-04-09T08:01:44;57393.98;;;-140.43;78.33
30714;BME280;17465;47.934;33.430;2023-04-09T08:04:20;57359.03;;;-140.43;79.78
30714;BME280;17465;47.934;33.430;2023-04-09T08:06:53;57359.03;;;-140.43;79.78
30714;BME280;17465;47.934;33.430;2023-04-09T08:09:27;57436.34;;;-140.43;72.79
30714;BME280;17465;47.934;33.430;2023-04-09T08:11:59;57398.21;;;-140.43;72.46
30714;BME280;17465;47.934;33.430;2023-04-09T08:14:32;57385.50;;;-140.43;73.06
30714;BME280;17465;47.934;33.430;2023-04-09T08:17:09;57385.50;;;-140.43;73.06
30714;BME280;17465;47.934;33.430;2023-04-09T08:19:43;57416.21;;;-140.43;72.34
30714;BME280;17465;47.934;33.430;2023-04-09T08:22:24;57400.33;;;-140.43;74.67
30714;BME280;17465;47.934;33.430;2023-04-09T08:24:55;57420.45;;;-140.43;75.43
30714;BME280;17465;47.934;33.430;2023-04-09T08:27:33;57401.39;;;-140.43;76.50
30714;BME280;17465;47.934;33.430;2023-04-09T08:30:14;57407.74;;;-140.43;80.23
30714;BME280;17465;47.934;33.430;2023-04-09T08:33:21;57407.74;;;-140.43;80.23
30714;BME280;17465;47.934;33.430;2023-04-09T08:36:34;57405.62;;;-140.43;77.85
30714;BME280;17465;47.934;33.430;2023-04-09T08:39:07;57405.62;;;-140.43;77.85
30714;BME280;17465;47.934;33.430;2023-04-09T08:41:41;57372.79;;;-140.43;81.11
30714;BME280;17465;47.934;33.430;2023-04-09T08:44:12;57383.38;;;-140.43;81.03
30714;BME280;17465;47.934;33.430;2023-04-09T08:46:53;57364.32;;;-140.43;83.67
30714;BME280;17465;47.934;33.430;2023-04-09T08:49:25;57368.55;;;-140.43;82.83
30714;BME280;17465;47.934;33.430;2023-04-09T08:51:56;57388.68;;;-140.43;80.82
30714;BME280;17465;47.934;33.430;2023-04-09T08:54:27;57397.15;;;-140.43;79.81
30714;BME280;17465;47.934;33.430;2023-04-09T08:57:05;57397.15;;;-140.43;79.81
30714;BME280;17465;47.934;33.430;2023-04-09T08:59:36;57368.55;;;-140.43;80.56
30714;BME280;17465;47.934;33.430;2023-04-09T09:02:12;57403.51;;;-140.43;80.46
30714;BME280;17465;47.934;33.430;2023-04-09T09:04:51;57366.44;;;-140.43;79.16
30714;BME280;17465;47.934;33.430;2023-04-09T09:07:23;57401.39;;;-140.43;79.36
30714;BME280;17465;47.934;33.430;2023-04-09T09:10:02;57373.85;;;-140.43;78.05
30714;BME280;17465;47.934;33.430;2023-04-09T09:12:41;57373.85;;;-140.43;78.05
30714;BME280;17465;47.934;33.430;2023-04-09T09:15:26;57405.62;;;-140.43;77.95
30714;BME280;17465;47.934;33.430;2023-04-09T09:18:16;57377.03;;;-140.43;77.97
30714;BME280;17465;47.934;33.430;2023-04-09T09:20:33;57396.09;;;-140.43;77.75
30714;BME280;17465;47.934;33.430;2023-04-09T09:23:10;57396.09;;;-140.43;77.75
30714;BME280;17465;47.934;33.430;2023-04-09T09:25:43;57388.68;;;-140.43;78.19
30714;BME280;17465;47.934;33.430;2023-04-09T09:28:19;57370.68;;;-140.43;77.46
30714;BME280;17465;47.934;33.430;2023-04-09T09:30:51;57380.21;;;-140.43;78.99
30714;BME280;17465;47.934;33.430;2023-04-09T09:33:22;57388.68;;;-140.43;78.14
30714;BME280;17465;47.934;33.430;2023-04-09T09:35:54;57391.86;;;-140.43;78.71
30714;BME280;17465;47.934;33.430;2023-04-09T09:38:25;57381.27;;;-140.43;79.26
30714;BME280;17465;47.934;33.430;2023-04-09T09:40:57;57393.98;;;-140.43;77.18
30714;BME280;17465;47.934;33.430;2023-04-09T09:43:39;57388.68;;;-140.43;75.66
30714;BME280;17465;47.934;33.430;2023-04-09T09:46:10;57388.68;;;-140.43;75.66
30714;BME280;17465;47.934;33.430;2023-04-09T09:48:42;57400.33;;;-140.43;75.16
30714;BME280;17465;47.934;33.430;2023-04-09T09:51:16;57400.33;;;-140.43;75.16
30714;BME280;17465;47.934;33.430;2023-04-09T09:53:53;57390.80;;;-140.43;74.30
30714;BME280;17465;47.934;33.430;2023-04-09T09:56:33;57406.68;;;-140.43;74.67
30714;BME280;17465;47.934;33.430;2023-04-09T09:59:22;57405.62;;;-140.43;76.10
30714;BME280;17465;47.934;33.430;2023-04-09T10:02:01;57405.62;;;-140.43;76.10
30714;BME280;17465;47.934;33.430;2023-04-09T10:04:34;57392.91;;;-140.43;75.67
30714;BME280;17465;47.934;33.430;2023-04-09T10:07:16;57392.91;;;-140.43;75.67
30714;BME280;17465;47.934;33.430;2023-04-09T10:09:44;57402.45;;;-140.43;76.68
30714;BME280;17465;47.934;33.430;2023-04-09T10:12:18;57400.33;;;-140.43;77.62
30714;BME280;17465;47.934;33.430;2023-04-09T10:14:52;57400.33;;;-140.43;77.62
30714;BME280;17465;47.934;33.430;2023-04-09T10:17:23;57396.09;;;-140.43;81.22
30714;BME280;17465;47.934;33.430;2023-04-09T10:19:59;57402.45;;;-140.43;83.37
30714;BME280;17465;47.934;33.430;2023-04-09T10:22:29;57397.15;;;-140.43;83.80
30714;BME280;17465;47.934;33.430;2023-04-09T10:25:02;57397.15;;;-140.43;83.80
30714;BME280;17465;47.934;33.430;2023-04-09T10:27:34;57381.27;;;-140.43;84.78
30714;BME280;17465;47.934;33.430;2023-04-09T10:30:07;57384.44;;;-140.43;86.75
30714;BME280;17465;47.934;33.430;2023-04-09T10:32:38;57405.62;;;-140.43;87.37
30714;BME280;17465;47.934;33.430;2023-04-09T10:35:09;57387.62;;;-140.43;84.90
30714;BME280;17465;47.934;33.430;2023-04-09T10:37:47;57387.62;;;-140.43;84.90
30714;BME280;17465;47.934;33.430;2023-04-09T10:40:21;57387.62;;;-140.43;81.11
30714;BME280;17465;47.934;33.430;2023-04-09T10:42:56;57411.98;;;-140.43;78.69
30714;BME280;17465;47.934;33.430;2023-04-09T10:45:38;57406.68;;;-140.43;77.92
30714;BME280;17465;47.934;33.430;2023-04-09T10:48:02;57415.16;;;-140.43;74.21
30714;BME280;17465;47.934;33.430;2023-04-09T10:50:44;57431.04;;;-140.43;72.68
30714;BME280;17465;47.934;33.430;2023-04-09T10:53:25;57440.57;;;-140.43;71.92
30714;BME280;17465;47.934;33.430;2023-04-09T10:56:04;57407.74;;;-140.43;70.74
30714;BME280;17465;47.934;33.430;2023-04-09T10:58:32;57426.80;;;-140.43;71.82
30714;BME280;17465;47.934;33.430;2023-04-09T11:01:04;57417.27;;;-140.43;72.85
30714;BME280;17465;47.934;33.430;2023-04-09T11:03:41;57410.92;;;-140.43;71.26
30714;BME280;17465;47.934;33.430;2023-04-09T11:06:13;57410.92;;;-140.43;71.26
30714;BME280;17465;47.934;33.430;2023-04-09T11:08:45;57401.39;;;-140.43;72.28
30714;BME280;17465;47.934;33.430;2023-04-09T11:11:16;57419.39;;;-140.43;72.51
30714;BME280;17465;47.934;33.430;2023-04-09T11:13:49;57391.86;;;-140.43;73.23
30714;BME280;17465;47.934;33.430;2023-04-09T11:16:22;57391.86;;;-140.43;73.23
30714;BME280;17465;47.934;33.430;2023-04-09T11:18:55;57411.98;;;-140.43;70.91
30714;BME280;17465;47.934;33.430;2023-04-09T11:21:26;57400.33;;;-140.43;70.34
30714;BME280;17465;47.934;33.430;2023-04-09T11:23:57;57380.21;;;-140.43;69.01
30714;BME280;17465;47.934;33.430;2023-04-09T11:26:36;57380.21;;;-140.43;69.01
30714;BME280;17465;47.934;33.430;2023-04-09T11:29:09;57392.91;;;-140.43;67.60
30714;BME280;17465;47.934;33.430;2023-04-09T11:31:43;57392.91;;;-140.43;67.60
30714;BME280;17465;47.934;33.430;2023-04-09T11:34:16;57417.27;;;-140.43;69.10
30714;BME280;17465;47.934;33.430;2023-04-09T11:36:50;57387.62;;;-140.43;68.55
30714;BME280;17465;47.934;33.430;2023-04-09T11:39:21;57387.62;;;-140.43;68.55
30714;BME280;17465;47.934;33.430;2023-04-09T11:41:55;57431.04;;;-140.43;68.41
30714;BME280;17465;47.934;33.430;2023-04-09T11:44:28;57415.16;;;-140.43;67.85
30714;BME280;17465;47.934;33.430;2023-04-09T11:46:59;57415.16;;;-140.43;67.85
30714;BME280;17465;47.934;33.430;2023-04-09T11:49:32;57419.39;;;-140.43;64.99
30714;BME280;17465;47.934;33.430;2023-04-09T11:52:06;57435.28;;;-140.43;64.32
30714;BME280;17465;47.934;33.430;2023-04-09T11:54:40;57436.34;;;-140.43;64.13
30714;BME280;17465;47.934;33.430;2023-04-09T11:57:11;57436.34;;;-140.43;64.13
30714;BME280;17465;47.934;33.430;2023-04-09T11:59:44;57442.69;;;-140.43;60.84
30714;BME280;17465;47.934;33.430;2023-04-09T12:02:17;57460.70;;;-140.43;59.25
30714;BME280;17465;47.934;33.430;2023-04-09T12:04:49;57460.70;;;-140.43;59.25
30714;BME280;17465;47.934;33.430;2023-04-09T12:07:21;57461.76;;;-140.43;60.61
30714;BME280;17465;47.934;33.430;2023-04-09T12:09:52;57487.18;;;-140.43;54.83
30714;BME280;17465;47.934;33.430;2023-04-09T12:12:24;57552.84;;;-140.43;47.75
30714;BME280;17465;47.934;33.430;2023-04-09T12:14:55;57551.78;;;-140.43;48.30
30714;BME280;17465;47.934;33.430;2023-04-09T12:17:26;57551.78;;;-140.43;48.30
30714;BME280;17465;47.934;33.430;2023-04-09T12:19:59;57550.72;;;-140.43;48.25
30714;BME280;17465;47.934;33.430;2023-04-09T12:22:32;57475.52;;;-140.43;54.32
30714;BME280;17465;47.934;33.430;2023-04-09T12:25:07;57475.52;;;-140.43;54.32
30714;BME280;17465;47.934;33.430;2023-04-09T12:27:38;57467.05;;;-140.43;56.02
30714;BME280;17465;47.934;33.430;2023-04-09T12:30:09;57435.28;;;-140.43;58.02
30714;BME280;17465;47.934;33.430;2023-04-09T12:32:43;57435.28;;;-140.43;58.02
30714;BME280;17465;47.934;33.430;2023-04-09T12:35:14;57455.40;;;-140.43;56.30
30714;BME280;17465;47.934;33.430;2023-04-09T12:37:45;57458.58;;;-140.43;55.06
30714;BME280;17465;47.934;33.430;2023-04-09T12:40:16;57482.94;;;-140.43;53.11
30714;BME280;17465;47.934;33.430;2023-04-09T12:42:48;57467.05;;;-140.43;54.71
30714;BME280;17465;47.934;33.430;2023-04-09T12:45:19;57459.64;;;-140.43;56.66
30714;BME280;17465;47.934;33.430;2023-04-09T12:47:50;57459.64;;;-140.43;56.66
30714;BME280;17465;47.934;33.430;2023-04-09T12:50:24;57463.87;;;-140.43;57.23
30714;BME280;17465;47.934;33.430;2023-04-09T12:52:55;57447.99;;;-140.43;57.07
30714;BME280;17465;47.934;33.430;2023-04-09T12:55:33;57449.05;;;-140.43;58.51
30714;BME280;17465;47.934;33.430;2023-04-09T12:58:18;57454.34;;;-140.43;57.44
30714;BME280;17465;47.934;33.430;2023-04-09T13:01:03;57476.58;;;-140.43;58.36